Time;durP1;ratioP1;P1;durP2;ratioP2;P2;SDS_P1;SDS_P2;PMS_P1;PMS_P2;Temp;Humidity;BMP_temperature;BMP_pressure;BME280_temperature;BME280_humidity;BME280_pressure;Samples;Min_cycle;Max_cycle;Signal;HPM_P1;HPM_P2
2023/05/20 00:00:48;;;;;;;10.07;4.38;;;13.40;96.30;;;;;;5112756;28;20086;-86
2023/05/20 00:03:14;;;;;;;11.05;3.95;;;13.40;95.00;;;;;;5114421;28;20074;-85
2023/05/20 00:05:40;;;;;;;9.27;4.32;;;13.40;94.90;;;;;;5114161;28;20093;-85
2023/05/20 00:08:08;;;;;;;7.90;3.55;;;13.30;95.00;;;;;;5114409;28;20035;-85
2023/05/20 00:10:34;;;;;;;9.93;4.13;;;13.30;95.10;;;;;;5113861;28;20047;-86
2023/05/20 00:13:00;;;;;;;12.13;5.93;;;13.20;95.90;;;;;;5114279;28;20067;-86
2023/05/20 00:15:25;;;;;;;10.07;3.90;;;13.30;98.20;;;;;;5114285;28;20395;-86
2023/05/20 00:17:51;;;;;;;10.02;4.00;;;13.20;96.40;;;;;;5113863;28;20040;-85
2023/05/20 00:20:17;;;;;;;13.52;6.28;;;13.20;96.40;;;;;;5113579;28;20040;-86
2023/05/20 00:22:42;;;;;;;10.63;3.97;;;13.20;99.00;;;;;;5113912;28;20118;-86
2023/05/20 00:25:08;;;;;;;10.00;3.85;;;13.20;97.10;;;;;;5113966;28;20043;-85
2023/05/20 00:27:34;;;;;;;9.63;3.67;;;13.10;96.80;;;;;;5113919;28;20035;-85
2023/05/20 00:29:59;;;;;;;13.93;4.70;;;13.10;97.70;;;;;;5113671;28;20027;-85
2023/05/20 00:32:25;;;;;;;10.65;4.28;;;13.10;97.80;;;;;;5113898;28;20492;-86
2023/05/20 00:35:00;;;;;;;11.48;4.50;;;13.10;98.00;;;;;;5113596;28;20062;-86
2023/05/20 00:37:26;;;;;;;11.18;6.00;;;13.10;98.90;;;;;;5112353;28;20423;-86
2023/05/20 00:39:52;;;;;;;13.00;4.43;;;13.10;99.90;;;;;;5113269;28;20047;-86
2023/05/20 00:42:26;;;;;;;9.32;3.58;;;13.10;98.70;;;;;;5113652;28;20039;-85
2023/05/20 00:44:52;;;;;;;8.15;3.40;;;13.10;99.10;;;;;;5113478;28;20035;-86
2023/05/20 00:47:22;;;;;;;14.07;6.07;;;13.00;99.00;;;;;;5112078;28;20039;-85
2023/05/20 00:49:49;;;;;;;9.30;3.55;;;13.10;99.90;;;;;;5113192;28;20043;-85
2023/05/20 00:52:17;;;;;;;13.05;6.15;;;13.10;99.50;;;;;;5113401;28;20082;-85
2023/05/20 00:54:43;;;;;;;11.75;4.50;;;13.10;99.90;;;;;;5113456;28;20126;-85
2023/05/20 00:57:08;;;;;;;12.95;5.90;;;13.10;99.80;;;;;;5113308;28;20464;-85
2023/05/20 00:59:37;;;;;;;9.45;4.07;;;13.20;99.90;;;;;;5112573;28;20404;-85
2023/05/20 01:02:04;;;;;;;10.10;3.92;;;13.10;99.90;;;;;;5112704;28;20382;-85
2023/05/20 01:04:30;;;;;;;10.25;4.45;;;13.10;99.90;;;;;;5113099;28;20035;-85
2023/05/20 01:06:57;;;;;;;9.55;4.28;;;13.10;99.90;;;;;;5113206;28;20389;-86
2023/05/20 01:09:26;;;;;;;12.93;4.15;;;13.10;99.90;;;;;;5113071;28;20042;-85
2023/05/20 01:12:02;;;;;;;11.25;4.05;;;13.10;99.90;;;;;;5112786;28;20039;-85
2023/05/20 01:14:31;;;;;;;10.77;5.38;;;13.10;99.90;;;;;;5113211;28;20043;-85
2023/05/20 01:17:08;;;;;;;9.15;4.18;;;13.10;99.90;;;;;;5112819;28;20040;-85
2023/05/20 01:19:33;;;;;;;11.93;4.32;;;13.10;99.90;;;;;;5112570;28;20035;-85
2023/05/20 01:22:03;;;;;;;11.60;3.65;;;13.00;99.90;;;;;;5112812;28;20048;-85
2023/05/20 01:24:28;;;;;;;9.80;4.07;;;13.00;99.90;;;;;;5112718;28;20441;-85
2023/05/20 01:26:56;;;;;;;10.50;3.72;;;13.00;99.90;;;;;;5112934;28;20533;-86
2023/05/20 01:29:22;;;;;;;12.48;5.90;;;13.00;99.90;;;;;;5112579;28;20047;-86
2023/05/20 01:31:50;;;;;;;11.35;4.13;;;13.00;99.90;;;;;;5112419;28;20047;-85
2023/05/20 01:34:16;;;;;;;9.15;3.47;;;13.00;99.90;;;;;;5112531;28;20103;-86
2023/05/20 01:36:45;;;;;;;10.18;3.42;;;13.00;99.90;;;;;;5112618;28;20043;-86
2023/05/20 01:39:11;;;;;;;12.27;4.43;;;13.00;99.90;;;;;;5112347;28;20039;-85
2023/05/20 01:41:38;;;;;;;10.35;4.32;;;13.00;99.90;;;;;;5112170;28;20050;-86
2023/05/20 01:44:04;;;;;;;12.75;6.30;;;13.00;99.90;;;;;;5112601;28;20035;-85
2023/05/20 01:46:33;;;;;;;13.13;3.72;;;13.00;99.90;;;;;;5094197;28;20101;-85
2023/05/20 01:48:59;;;;;;;7.95;3.55;;;13.00;99.90;;;;;;5112291;28;20039;-85
2023/05/20 01:51:24;;;;;;;10.90;3.83;;;13.00;99.90;;;;;;5112061;28;20035;-85
2023/05/20 01:53:50;;;;;;;11.55;5.85;;;12.90;99.90;;;;;;5112208;28;20095;-86
2023/05/20 01:56:16;;;;;;;9.27;3.95;;;13.00;99.90;;;;;;5112335;28;20123;-86
2023/05/20 01:58:41;;;;;;;9.73;3.88;;;13.00;99.90;;;;;;5112381;28;20042;-86
2023/05/20 02:01:07;;;;;;;12.45;3.88;;;12.90;99.90;;;;;;5111932;28;20071;-85
2023/05/20 02:03:32;;;;;;;10.38;3.70;;;12.90;99.90;;;;;;5112251;28;20497;-86
2023/05/20 02:05:58;;;;;;;9.68;3.45;;;12.90;99.90;;;;;;5112167;28;20032;-85
2023/05/20 02:08:23;;;;;;;12.02;5.85;;;12.90;99.90;;;;;;5112056;28;20588;-85
2023/05/20 02:10:49;;;;;;;7.65;3.15;;;12.90;99.90;;;;;;5111864;28;20049;-85
2023/05/20 02:13:15;;;;;;;11.90;3.95;;;12.90;99.90;;;;;;5114560;28;20074;-85
2023/05/20 02:15:41;;;;;;;9.82;4.70;;;12.90;99.90;;;;;;5116388;28;20070;-85
2023/05/20 02:18:07;;;;;;;12.60;3.95;;;12.90;99.90;;;;;;5116305;28;20057;-85
2023/05/20 02:20:35;;;;;;;7.47;3.28;;;12.90;99.90;;;;;;5097685;28;20580;-85
2023/05/20 02:23:01;;;;;;;10.55;4.95;;;12.90;99.90;;;;;;5116537;28;20039;-85
2023/05/20 02:25:27;;;;;;;11.00;3.40;;;12.90;99.90;;;;;;5116501;28;20410;-85
2023/05/20 02:27:53;;;;;;;7.18;3.42;;;12.90;99.90;;;;;;5116244;28;20519;-86
2023/05/20 02:30:18;;;;;;;10.13;3.58;;;12.90;99.90;;;;;;5115997;28;20076;-85
2023/05/20 02:32:44;;;;;;;7.97;3.13;;;12.90;99.90;;;;;;5116149;28;20035;-85
2023/05/20 02:35:10;;;;;;;7.45;2.95;;;12.80;99.90;;;;;;5116031;28;20062;-86
2023/05/20 02:37:37;;;;;;;9.95;3.10;;;12.80;99.90;;;;;;5115932;28;20035;-86
2023/05/20 02:40:03;;;;;;;8.75;4.53;;;12.80;99.90;;;;;;5115614;28;20082;-86
2023/05/20 02:42:29;;;;;;;11.63;5.05;;;12.90;99.90;;;;;;5115878;28;20545;-86
2023/05/20 02:44:57;;;;;;;7.20;2.92;;;13.00;99.90;;;;;;5115955;28;20031;-86
2023/05/20 02:47:23;;;;;;;7.72;3.15;;;12.90;99.90;;;;;;5115768;28;20081;-86
2023/05/20 02:49:49;;;;;;;9.43;3.00;;;12.80;99.90;;;;;;5114371;28;20039;-85
2023/05/20 02:52:15;;;;;;;8.68;2.85;;;12.80;99.90;;;;;;5115970;28;20043;-85
2023/05/20 02:54:41;;;;;;;7.28;2.78;;;12.80;99.90;;;;;;5115841;28;20024;-85
2023/05/20 02:57:06;;;;;;;10.52;3.45;;;12.70;99.90;;;;;;5115664;28;20501;-85
2023/05/20 02:59:32;;;;;;;8.88;3.28;;;12.70;99.90;;;;;;5114142;28;20437;-86
2023/05/20 03:01:57;;;;;;;7.95;3.25;;;12.70;99.90;;;;;;5115591;28;20099;-86
2023/05/20 03:04:25;;;;;;;7.95;3.03;;;12.70;99.90;;;;;;5115413;28;20035;-85
2023/05/20 03:06:50;;;;;;;7.70;2.88;;;12.70;99.90;;;;;;5115628;28;20032;-85
2023/05/20 03:09:18;;;;;;;7.57;2.55;;;12.70;99.90;;;;;;5115378;28;20514;-85
2023/05/20 03:11:44;;;;;;;11.60;4.82;;;12.70;99.90;;;;;;5114981;28;20039;-86
2023/05/20 03:14:10;;;;;;;8.25;3.10;;;12.70;99.90;;;;;;5115356;28;20064;-85
2023/05/20 03:16:35;;;;;;;9.32;3.42;;;12.70;99.90;;;;;;5115234;28;20036;-86
2023/05/20 03:19:01;;;;;;;8.77;3.17;;;12.60;99.90;;;;;;5115073;28;20493;-85
2023/05/20 03:21:27;;;;;;;10.43;3.58;;;12.60;99.90;;;;;;5114860;28;20512;-86
2023/05/20 03:23:52;;;;;;;11.07;4.50;;;12.60;99.90;;;;;;5114467;28;20054;-85
2023/05/20 03:26:18;;;;;;;8.93;2.60;;;12.60;99.90;;;;;;5115146;28;20032;-85
2023/05/20 03:28:43;;;;;;;8.45;2.63;;;12.60;99.90;;;;;;5096756;28;20630;-85
2023/05/20 03:31:09;;;;;;;9.38;3.35;;;12.60;99.90;;;;;;5114617;28;20119;-85
2023/05/20 03:33:35;;;;;;;7.53;2.78;;;12.50;99.90;;;;;;5113509;28;20040;-85
2023/05/20 03:36:00;;;;;;;8.30;3.08;;;12.50;99.90;;;;;;5115164;28;20040;-85
2023/05/20 03:38:26;;;;;;;8.75;2.90;;;12.50;99.90;;;;;;5114800;28;20409;-85
2023/05/20 03:40:52;;;;;;;9.60;3.17;;;12.50;99.90;;;;;;5114449;28;20521;-85
2023/05/20 03:43:17;;;;;;;11.13;4.13;;;12.50;99.90;;;;;;5114458;28;20035;-85
2023/05/20 03:45:43;;;;;;;10.10;2.80;;;12.50;99.90;;;;;;5096269;28;20115;-85
2023/05/20 03:48:08;;;;;;;8.43;2.88;;;12.50;99.90;;;;;;5114333;28;20187;-85
2023/05/20 03:50:34;;;;;;;8.38;2.88;;;12.50;99.90;;;;;;5114343;28;20082;-85
2023/05/20 03:53:00;;;;;;;7.35;2.72;;;12.40;99.90;;;;;;5114689;28;20035;-85
2023/05/20 03:55:26;;;;;;;6.53;2.50;;;12.40;99.90;;;;;;5114566;28;20484;-85
2023/05/20 03:57:52;;;;;;;7.93;2.90;;;12.40;99.90;;;;;;5114558;28;20432;-85
2023/05/20 04:00:17;;;;;;;7.43;2.60;;;12.40;99.90;;;;;;5114082;28;20046;-85
2023/05/20 04:02:43;;;;;;;8.98;3.05;;;12.40;99.90;;;;;;5096123;28;20047;-85
2023/05/20 04:05:09;;;;;;;6.82;2.45;;;12.30;99.90;;;;;;5114249;28;20040;-86
2023/05/20 04:07:35;;;;;;;6.43;2.30;;;12.30;99.90;;;;;;5114228;28;20512;-86
2023/05/20 04:10:02;;;;;;;9.95;2.90;;;12.30;99.90;;;;;;5113815;28;20135;-86
2023/05/20 04:12:29;;;;;;;8.82;3.92;;;12.30;99.90;;;;;;5114400;28;20053;-86
2023/05/20 04:15:00;;;;;;;9.02;3.20;;;12.40;99.90;;;;;;5114123;28;20054;-86
2023/05/20 04:17:29;;;;;;;8.88;2.65;;;12.40;99.90;;;;;;5113893;28;20088;-86
2023/05/20 04:19:59;;;;;;;6.95;2.28;;;12.30;99.90;;;;;;5113700;28;20531;-85
2023/05/20 04:22:25;;;;;;;8.82;2.50;;;12.30;99.90;;;;;;5114009;28;20047;-86
2023/05/20 04:24:51;;;;;;;10.27;2.55;;;12.30;99.90;;;;;;5125480;27;20074;-86
2023/05/20 04:27:17;;;;;;;6.68;2.60;;;12.30;99.90;;;;;;5134344;27;20470;-85
2023/05/20 04:29:46;;;;;;;10.73;2.95;;;12.30;99.90;;;;;;5134035;27;20039;-86
2023/05/20 04:32:13;;;;;;;9.82;2.85;;;12.30;99.90;;;;;;5098848;27;20035;-85
2023/05/20 04:34:39;;;;;;;7.60;2.63;;;12.30;99.90;;;;;;5098909;27;20074;-86
2023/05/20 04:37:06;;;;;;;6.50;2.30;;;12.30;99.90;;;;;;5133329;27;20067;-86
2023/05/20 04:39:32;;;;;;;6.47;2.20;;;12.30;99.90;;;;;;5133910;27;20035;-85
2023/05/20 04:41:58;;;;;;;8.40;2.45;;;12.30;99.90;;;;;;5134135;27;20454;-86
2023/05/20 04:44:25;;;;;;;7.18;2.10;;;12.30;99.90;;;;;;5134021;27;20066;-86
2023/05/20 04:46:51;;;;;;;8.07;3.30;;;12.30;99.90;;;;;;5134352;27;20110;-86
2023/05/20 04:49:17;;;;;;;7.30;2.40;;;12.40;99.90;;;;;;5133965;27;20073;-86
2023/05/20 04:51:43;;;;;;;5.75;2.03;;;12.40;99.90;;;;;;5133748;27;20496;-86
2023/05/20 04:54:09;;;;;;;8.30;2.08;;;12.40;99.90;;;;;;5133842;27;20050;-86
2023/05/20 04:56:35;;;;;;;7.32;2.40;;;12.40;99.90;;;;;;5133911;27;20031;-86
2023/05/20 04:59:00;;;;;;;6.97;2.10;;;12.40;99.90;;;;;;5133539;27;20035;-86
2023/05/20 05:01:26;;;;;;;5.53;2.15;;;12.40;99.90;;;;;;5114948;27;20100;-86
2023/05/20 05:03:52;;;;;;;10.15;3.65;;;12.50;99.90;;;;;;5133799;27;20039;-86
2023/05/20 05:06:17;;;;;;;7.55;2.60;;;12.60;99.90;;;;;;5133619;27;20442;-86
2023/05/20 05:08:43;;;;;;;6.93;1.95;;;12.60;99.90;;;;;;5133565;27;20031;-86
2023/05/20 05:11:08;;;;;;;7.65;2.85;;;12.60;99.90;;;;;;5133200;27;20039;-86
2023/05/20 05:13:34;;;;;;;7.97;2.20;;;12.60;99.90;;;;;;5133485;27;20073;-86
2023/05/20 05:16:00;;;;;;;7.22;2.20;;;12.70;99.90;;;;;;5133609;27;20031;-86
2023/05/20 05:18:26;;;;;;;8.57;2.78;;;12.70;99.90;;;;;;5133498;27;20039;-86
2023/05/20 05:21:00;;;;;;;7.05;2.20;;;12.70;99.90;;;;;;5133171;27;20099;-86
2023/05/20 05:23:26;;;;;;;6.18;2.03;;;12.80;99.90;;;;;;5115055;27;20099;-86
2023/05/20 05:25:52;;;;;;;6.32;2.05;;;12.80;99.90;;;;;;5133369;27;20034;-86
2023/05/20 05:28:17;;;;;;;7.47;1.88;;;12.80;99.90;;;;;;5114681;27;20488;-86
2023/05/20 05:30:43;;;;;;;4.70;1.75;;;12.80;99.90;;;;;;5114691;27;20083;-86
2023/05/20 05:33:09;;;;;;;9.23;2.10;;;12.80;99.90;;;;;;5133166;27;20034;-86
2023/05/20 05:35:34;;;;;;;6.05;2.03;;;12.90;99.90;;;;;;5133199;27;20118;-86
2023/05/20 05:38:00;;;;;;;7.70;2.85;;;12.90;99.90;;;;;;5133034;27;20058;-86
2023/05/20 05:40:26;;;;;;;8.38;3.03;;;13.10;99.60;;;;;;5132756;27;20035;-86
2023/05/20 05:42:52;;;;;;;7.25;2.60;;;13.10;98.00;;;;;;5132879;27;20031;-86
2023/05/20 05:45:17;;;;;;;6.63;1.70;;;13.20;96.80;;;;;;5133243;27;20038;-86
2023/05/20 05:47:43;;;;;;;6.88;2.03;;;13.20;96.50;;;;;;5132770;27;20046;-86
2023/05/20 05:50:09;;;;;;;7.75;2.15;;;13.20;96.60;;;;;;5132723;27;20039;-86
2023/05/20 05:52:35;;;;;;;5.55;1.67;;;13.30;96.60;;;;;;5133012;27;20039;-86
2023/05/20 05:55:01;;;;;;;5.78;1.90;;;13.30;96.50;;;;;;5132832;27;20035;-86
2023/05/20 05:57:27;;;;;;;6.55;2.53;;;13.30;96.40;;;;;;5132744;27;20043;-86
2023/05/20 05:59:52;;;;;;;5.45;1.83;;;13.50;95.10;;;;;;5132663;27;20047;-86
2023/05/20 06:02:18;;;;;;;6.13;1.83;;;13.50;94.40;;;;;;5132992;27;20449;-86
2023/05/20 06:04:43;;;;;;;5.40;1.92;;;13.60;94.30;;;;;;5132854;27;20114;-86
2023/05/20 06:07:09;;;;;;;4.63;1.58;;;13.60;94.10;;;;;;5132730;27;20039;-86
2023/05/20 06:09:35;;;;;;;6.75;2.50;;;13.70;93.80;;;;;;5132280;27;20030;-86
2023/05/20 06:12:01;;;;;;;6.53;1.83;;;13.70;93.10;;;;;;5132510;28;20047;-86
2023/05/20 06:14:27;;;;;;;8.00;1.75;;;13.80;92.90;;;;;;5132840;28;20042;-86
2023/05/20 06:16:52;;;;;;;7.50;2.00;;;13.90;92.90;;;;;;5132712;28;20419;-86
2023/05/20 06:19:18;;;;;;;5.28;1.90;;;13.90;92.50;;;;;;5132646;28;20510;-86
2023/05/20 06:21:43;;;;;;;6.00;2.20;;;14.00;92.30;;;;;;5132319;28;20048;-86
2023/05/20 06:24:09;;;;;;;5.07;1.77;;;14.10;91.40;;;;;;5132607;28;20080;-86
2023/05/20 06:26:34;;;;;;;5.25;1.85;;;14.10;91.00;;;;;;5132475;28;20126;-86
2023/05/20 06:29:00;;;;;;;5.60;2.20;;;14.20;90.80;;;;;;5132485;28;20114;-86
2023/05/20 06:31:26;;;;;;;5.45;2.03;;;14.30;90.20;;;;;;5132170;28;20512;-86
2023/05/20 06:33:51;;;;;;;4.38;1.50;;;14.40;88.20;;;;;;5132367;28;20075;-86
2023/05/20 06:36:17;;;;;;;7.55;2.75;;;14.50;88.40;;;;;;5132318;28;20540;-86
2023/05/20 06:38:43;;;;;;;6.10;1.70;;;14.60;87.60;;;;;;5132419;28;20059;-86
2023/05/20 06:41:08;;;;;;;6.20;2.30;;;14.60;87.50;;;;;;5131795;28;20050;-86
2023/05/20 06:43:34;;;;;;;7.22;2.05;;;14.60;87.50;;;;;;5132362;28;20038;-86
2023/05/20 06:45:59;;;;;;;7.55;2.40;;;14.70;86.90;;;;;;5132169;28;20050;-86
2023/05/20 06:48:25;;;;;;;6.65;1.98;;;14.80;85.90;;;;;;5132400;28;20035;-86
2023/05/20 06:50:50;;;;;;;6.30;2.67;;;14.90;86.10;;;;;;5131924;28;20122;-86
2023/05/20 06:53:16;;;;;;;9.02;2.40;;;15.00;84.80;;;;;;5114093;28;20039;-86
2023/05/20 06:55:42;;;;;;;6.70;2.60;;;15.10;84.30;;;;;;5132150;28;20475;-86
2023/05/20 06:58:07;;;;;;;8.73;1.90;;;15.10;83.40;;;;;;5132211;28;20095;-86
2023/05/20 07:00:33;;;;;;;4.88;1.77;;;15.10;83.70;;;;;;5134549;27;20084;-86
2023/05/20 07:02:58;;;;;;;7.45;2.80;;;15.20;84.10;;;;;;5136077;27;20492;-86
2023/05/20 07:05:24;;;;;;;6.25;2.35;;;15.30;83.00;;;;;;5136075;27;20038;-86
2023/05/20 07:07:50;;;;;;;8.05;2.00;;;15.40;82.40;;;;;;5135118;27;20042;-86
2023/05/20 07:10:16;;;;;;;7.53;2.67;;;15.40;82.70;;;;;;5117436;27;20047;-86
2023/05/20 07:12:41;;;;;;;8.07;2.45;;;15.50;81.90;;;;;;5135425;27;20095;-86
2023/05/20 07:15:08;;;;;;;6.03;2.03;;;15.60;81.30;;;;;;5135872;27;20035;-86
2023/05/20 07:17:33;;;;;;;6.82;2.20;;;15.60;81.40;;;;;;5135900;27;20040;-86
2023/05/20 07:19:59;;;;;;;7.18;2.90;;;15.60;81.30;;;;;;5135577;27;20035;-86
2023/05/20 07:22:24;;;;;;;8.65;2.58;;;15.60;81.30;;;;;;5135787;27;20514;-86
2023/05/20 07:24:50;;;;;;;7.53;2.83;;;15.70;80.90;;;;;;5135465;27;20032;-86
2023/05/20 07:27:16;;;;;;;7.00;2.70;;;15.70;81.10;;;;;;5135475;27;20488;-86
2023/05/20 07:29:41;;;;;;;6.15;2.58;;;15.80;81.00;;;;;;5135266;27;20038;-86
2023/05/20 07:32:08;;;;;;;5.88;2.13;;;15.90;80.40;;;;;;5135695;27;20031;-86
2023/05/20 07:34:33;;;;;;;6.22;2.15;;;16.00;80.60;;;;;;5135501;27;20091;-87
2023/05/20 07:37:00;;;;;;;15.93;3.00;;;16.00;80.70;;;;;;5135029;27;20027;-86
2023/05/20 07:39:26;;;;;;;7.22;3.00;;;16.10;80.50;;;;;;5134859;27;20484;-87
2023/05/20 07:41:51;;;;;;;6.55;2.60;;;16.20;79.80;;;;;;5135185;27;20071;-86
2023/05/20 07:44:17;;;;;;;6.10;2.50;;;16.30;80.00;;;;;;5135394;27;20090;-87
2023/05/20 07:46:44;;;;;;;7.13;2.70;;;16.40;80.10;;;;;;5135337;27;20043;-87
2023/05/20 07:49:10;;;;;;;8.23;3.00;;;16.50;80.00;;;;;;5135248;27;20058;-86
2023/05/20 07:51:35;;;;;;;6.88;2.90;;;16.60;80.30;;;;;;5134822;27;20514;-86
2023/05/20 07:54:01;;;;;;;7.10;2.90;;;16.70;78.90;;;;;;5134924;27;20039;-87
2023/05/20 07:56:27;;;;;;;8.32;3.10;;;16.70;77.70;;;;;;5134488;27;20043;-86
2023/05/20 07:58:57;;;;;;;7.78;3.03;;;16.80;77.20;;;;;;5132859;27;20039;-87
2023/05/20 08:01:26;;;;;;;7.50;3.03;;;16.90;77.00;;;;;;5132763;27;20047;-87
2023/05/20 08:03:56;;;;;;;8.93;2.45;;;16.90;76.90;;;;;;5133274;27;20039;-87
2023/05/20 08:06:23;;;;;;;7.78;2.67;;;16.90;76.90;;;;;;5134402;27;20035;-87
2023/05/20 08:08:48;;;;;;;8.27;3.13;;;16.90;76.80;;;;;;5134582;27;20043;-87
2023/05/20 08:11:14;;;;;;;8.32;3.13;;;17.00;76.80;;;;;;5134308;27;20041;-87
2023/05/20 08:13:40;;;;;;;7.28;2.70;;;17.10;76.10;;;;;;5134857;27;20035;-86
2023/05/20 08:16:06;;;;;;;8.10;2.90;;;17.20;75.70;;;;;;5099652;27;20673;-87
2023/05/20 08:18:33;;;;;;;7.38;2.85;;;17.20;75.80;;;;;;5134292;27;20031;-87
2023/05/20 08:20:59;;;;;;;7.63;2.90;;;17.30;74.70;;;;;;5134234;27;20047;-87
2023/05/20 08:23:24;;;;;;;10.05;3.13;;;17.30;73.70;;;;;;5134490;27;20035;-87
2023/05/20 08:25:50;;;;;;;8.90;2.78;;;17.40;74.70;;;;;;5134318;27;20461;-86
2023/05/20 08:28:16;;;;;;;7.90;2.72;;;17.50;74.70;;;;;;5134596;27;20067;-86
2023/05/20 08:30:42;;;;;;;8.27;2.72;;;17.60;73.90;;;;;;5133914;27;20039;-87
2023/05/20 08:33:08;;;;;;;7.28;2.55;;;17.70;73.70;;;;;;5134170;27;20046;-87
2023/05/20 08:35:34;;;;;;;7.05;2.95;;;17.70;73.10;;;;;;5133657;27;20406;-86
2023/05/20 08:38:00;;;;;;;6.88;2.42;;;17.70;72.90;;;;;;5134181;27;20047;-87
2023/05/20 08:40:26;;;;;;;7.15;2.83;;;17.80;73.20;;;;;;5133947;27;20118;-87
2023/05/20 08:42:52;;;;;;;6.90;2.70;;;17.90;73.00;;;;;;5134153;27;20067;-86
2023/05/20 08:45:20;;;;;;;6.10;2.58;;;18.00;72.10;;;;;;5133977;27;20429;-87
2023/05/20 08:47:46;;;;;;;6.32;2.70;;;18.00;71.80;;;;;;5098493;27;20050;-87
2023/05/20 08:50:13;;;;;;;6.75;2.88;;;18.10;71.00;;;;;;5133641;27;20031;-87
2023/05/20 08:52:47;;;;;;;7.10;2.85;;;18.20;71.30;;;;;;5134189;27;20400;-86
2023/05/20 08:55:16;;;;;;;7.65;2.60;;;18.20;70.50;;;;;;5134003;27;20035;-86
2023/05/20 08:57:44;;;;;;;9.00;2.72;;;18.30;69.60;;;;;;5133725;27;20400;-87
2023/05/20 09:00:12;;;;;;;9.90;2.80;;;18.30;69.70;;;;;;5133553;27;20039;-86
2023/05/20 09:02:40;;;;;;;6.97;2.70;;;18.30;69.00;;;;;;5133749;27;20050;-87
2023/05/20 09:05:09;;;;;;;19.77;9.45;;;18.30;68.60;;;;;;5115610;27;20100;-87
2023/05/20 09:07:35;;;;;;;6.32;2.70;;;18.40;69.30;;;;;;5133657;27;20035;-87
2023/05/20 09:10:01;;;;;;;5.95;2.17;;;18.40;69.00;;;;;;5132595;27;20515;-86
2023/05/20 09:12:26;;;;;;;11.55;4.95;;;18.50;69.20;;;;;;5133590;27;20043;-86
2023/05/20 09:14:52;;;;;;;13.10;5.22;;;18.60;68.80;;;;;;5133105;27;20050;-87
2023/05/20 09:17:20;;;;;;;10.18;3.90;;;18.60;68.60;;;;;;5133370;27;20045;-87
2023/05/20 09:19:48;;;;;;;8.18;2.75;;;18.60;68.80;;;;;;5133303;27;20035;-86
2023/05/20 09:22:14;;;;;;;6.68;2.30;;;18.70;68.50;;;;;;5133040;27;20035;-87
2023/05/20 09:24:40;;;;;;;8.90;2.75;;;18.70;68.20;;;;;;5133313;27;20507;-86
2023/05/20 09:27:05;;;;;;;6.80;2.30;;;18.80;68.40;;;;;;5133240;27;20446;-87
2023/05/20 09:29:32;;;;;;;9.82;2.75;;;18.90;67.40;;;;;;5132879;27;20118;-87
2023/05/20 09:32:01;;;;;;;7.40;2.50;;;18.90;66.60;;;;;;5132868;27;20043;-87
2023/05/20 09:34:28;;;;;;;7.05;2.40;;;19.10;66.70;;;;;;5097618;27;20070;-86
2023/05/20 09:36:55;;;;;;;8.55;2.80;;;19.10;66.00;;;;;;5114757;27;20512;-86
2023/05/20 09:39:29;;;;;;;6.93;2.47;;;19.10;65.80;;;;;;5132922;27;20557;-86
2023/05/20 09:42:01;;;;;;;7.97;2.85;;;19.20;66.50;;;;;;5132858;27;20487;-87
2023/05/20 09:44:28;;;;;;;7.70;2.50;;;19.20;65.60;;;;;;5132868;27;20031;-86
2023/05/20 09:46:55;;;;;;;6.80;2.53;;;19.20;65.50;;;;;;5133216;27;20108;-86
2023/05/20 09:49:22;;;;;;;7.55;2.72;;;19.30;65.60;;;;;;5133048;27;20031;-86
2023/05/20 09:51:49;;;;;;;8.05;2.38;;;19.30;66.20;;;;;;5132716;27;20385;-86
2023/05/20 09:54:18;;;;;;;6.18;2.30;;;19.40;65.40;;;;;;5132963;27;20039;-86
2023/05/20 09:56:45;;;;;;;6.93;2.78;;;19.50;66.10;;;;;;5132759;27;20039;-86
2023/05/20 09:59:14;;;;;;;7.65;2.92;;;19.60;65.40;;;;;;5132665;27;20088;-86
2023/05/20 10:01:40;;;;;;;8.30;2.58;;;19.70;64.60;;;;;;5132658;27;20408;-86
2023/05/20 10:04:08;;;;;;;7.07;2.63;;;19.80;64.60;;;;;;5132684;27;20031;-86
2023/05/20 10:07:01;;;;;;;7.15;2.67;;;19.80;64.00;;;;;;5132730;27;20074;-86
2023/05/20 10:09:42;;;;;;;6.72;2.50;;;19.80;63.80;;;;;;5132309;27;20042;-87
2023/05/20 10:12:20;;;;;;;8.13;2.30;;;19.90;63.70;;;;;;5132950;27;20082;-86
2023/05/20 10:15:06;;;;;;;8.23;2.55;;;20.00;63.60;;;;;;5132784;28;20040;-86
2023/05/20 10:18:03;;;;;;;7.88;2.40;;;20.20;63.90;;;;;;5132546;28;20035;-86
2023/05/20 10:20:29;;;;;;;6.90;2.53;;;20.20;62.00;;;;;;5118414;28;20078;-87
2023/05/20 10:22:59;;;;;;;6.82;2.50;;;20.20;62.30;;;;;;5132475;28;20032;-87
2023/05/20 10:25:27;;;;;;;6.80;2.90;;;20.30;62.70;;;;;;5132533;28;20096;-87
2023/05/20 10:28:06;;;;;;;5.15;1.85;;;20.50;62.90;;;;;;5132499;28;20118;-86
2023/05/20 10:30:32;;;;;;;7.28;2.45;;;20.60;62.60;;;;;;5113844;28;20379;-87
2023/05/20 10:33:04;;;;;;;6.97;2.40;;;20.70;61.60;;;;;;5132700;28;20117;-86
2023/05/20 10:35:30;;;;;;;5.90;2.00;;;20.70;60.40;;;;;;5135351;27;20046;-86
2023/05/20 10:38:10;;;;;;;6.18;2.10;;;20.80;61.00;;;;;;5136668;27;20039;-87
2023/05/20 10:40:36;;;;;;;9.90;2.80;;;20.90;61.00;;;;;;5136224;27;20047;-87
2023/05/20 10:43:13;;;;;;;5.40;2.15;;;20.90;60.80;;;;;;5136902;27;20031;-87
2023/05/20 10:45:50;;;;;;;6.82;2.10;;;21.00;60.60;;;;;;5136556;27;20036;-86
2023/05/20 10:48:30;;;;;;;7.43;2.35;;;21.00;59.90;;;;;;5136342;27;20082;-87
2023/05/20 10:50:58;;;;;;;5.70;2.00;;;21.10;60.10;;;;;;5136076;27;20054;-86
2023/05/20 10:53:26;;;;;;;6.25;2.03;;;21.20;60.30;;;;;;5136156;27;20500;-87
2023/05/20 10:55:56;;;;;;;6.07;1.98;;;21.30;59.70;;;;;;5117856;27;20393;-87
2023/05/20 10:58:23;;;;;;;7.78;1.95;;;21.30;59.40;;;;;;5136238;27;20031;-87
2023/05/20 11:00:52;;;;;;;8.85;2.20;;;21.30;58.30;;;;;;5135951;27;20035;-87
2023/05/20 11:03:20;;;;;;;8.90;2.10;;;21.30;57.40;;;;;;5136069;27;20046;-87
2023/05/20 11:05:47;;;;;;;5.95;1.80;;;21.30;57.90;;;;;;5135966;27;20035;-87
2023/05/20 11:08:13;;;;;;;5.35;1.90;;;21.40;58.90;;;;;;5136161;27;20069;-87
2023/05/20 11:10:40;;;;;;;5.10;2.03;;;21.50;58.70;;;;;;5135511;27;20047;-87
2023/05/20 11:13:07;;;;;;;7.55;2.10;;;21.60;57.70;;;;;;5136012;27;20404;-87
2023/05/20 11:15:34;;;;;;;7.13;2.40;;;21.60;56.60;;;;;;5135822;27;20492;-87
2023/05/20 11:18:02;;;;;;;6.32;2.20;;;21.70;57.00;;;;;;5135749;27;20031;-87
2023/05/20 11:20:29;;;;;;;8.88;2.20;;;21.80;57.20;;;;;;5135294;27;20043;-87
2023/05/20 11:22:55;;;;;;;6.10;1.77;;;21.80;57.60;;;;;;5135914;27;20031;-87
2023/05/20 11:25:24;;;;;;;5.10;1.92;;;21.90;57.00;;;;;;5132541;27;20175;-87
2023/05/20 11:27:50;;;;;;;5.53;2.13;;;21.80;56.30;;;;;;5086412;27;20074;-87
2023/05/20 11:30:17;;;;;;;7.57;2.10;;;21.80;56.80;;;;;;5124493;27;20099;-87
2023/05/20 11:33:00;;;;;;;6.15;2.25;;;21.80;56.60;;;;;;5126030;27;20054;-87
2023/05/20 11:35:30;;;;;;;7.65;2.00;;;21.90;57.40;;;;;;5125813;27;20027;-87
2023/05/20 11:38:03;;;;;;;7.13;1.95;;;22.00;57.70;;;;;;5124827;27;20074;-87
2023/05/20 11:40:31;;;;;;;7.30;1.80;;;22.20;57.50;;;;;;5085514;27;20035;-87
2023/05/20 11:43:00;;;;;;;7.20;2.00;;;22.30;56.70;;;;;;5124363;27;20092;-87
2023/05/20 11:45:27;;;;;;;6.68;2.10;;;22.50;56.10;;;;;;5125002;27;20027;-87
2023/05/20 11:48:03;;;;;;;7.70;2.10;;;22.60;55.50;;;;;;5105662;27;20028;-87
2023/05/20 11:50:39;;;;;;;8.98;2.08;;;22.60;55.60;;;;;;5120819;27;20027;-87
2023/05/20 11:53:06;;;;;;;6.45;2.05;;;22.60;55.80;;;;;;5135220;27;20114;-87
2023/05/20 11:55:32;;;;;;;10.68;2.50;;;22.60;55.70;;;;;;5135117;27;20484;-87
2023/05/20 11:58:00;;;;;;;8.45;2.33;;;22.70;55.90;;;;;;5134959;27;20042;-87
2023/05/20 12:00:26;;;;;;;6.65;1.90;;;22.70;55.00;;;;;;5134897;27;20095;-87
2023/05/20 12:02:52;;;;;;;6.53;1.80;;;22.70;55.00;;;;;;5135024;27;20353;-87
2023/05/20 12:05:19;;;;;;;6.18;2.15;;;22.70;56.00;;;;;;5134973;27;20105;-87
2023/05/20 12:07:44;;;;;;;7.03;1.85;;;22.70;55.50;;;;;;5134971;27;20289;-87
2023/05/20 12:10:10;;;;;;;7.82;2.00;;;22.80;55.90;;;;;;5134411;27;20493;-87
2023/05/20 12:12:36;;;;;;;6.25;1.90;;;22.90;55.50;;;;;;5134799;27;20484;-87
2023/05/20 12:15:05;;;;;;;5.90;1.73;;;22.90;54.50;;;;;;5134915;27;20035;-87
2023/05/20 12:17:45;;;;;;;4.82;1.75;;;22.90;54.80;;;;;;5134610;27;20043;-87
2023/05/20 12:20:13;;;;;;;10.70;2.17;;;22.90;54.30;;;;;;5134328;27;20039;-88
2023/05/20 12:22:39;;;;;;;7.85;2.13;;;23.00;54.00;;;;;;5134663;27;20048;-87
2023/05/20 12:25:05;;;;;;;9.15;1.90;;;23.00;53.90;;;;;;5134483;27;20042;-87
2023/05/20 12:27:32;;;;;;;6.97;1.88;;;23.10;53.90;;;;;;5134676;27;20031;-87
2023/05/20 12:29:58;;;;;;;7.07;1.90;;;23.20;54.00;;;;;;5134275;27;20035;-87
2023/05/20 12:32:24;;;;;;;6.40;1.90;;;23.30;53.90;;;;;;5134533;27;20027;-87
2023/05/20 12:34:50;;;;;;;7.03;1.80;;;23.40;53.60;;;;;;5134302;27;20041;-87
2023/05/20 12:37:15;;;;;;;5.60;1.70;;;23.50;53.30;;;;;;5134163;27;20035;-87
2023/05/20 12:39:41;;;;;;;4.35;1.52;;;23.50;53.80;;;;;;5134068;27;20545;-87
2023/05/20 12:42:07;;;;;;;5.63;1.75;;;23.60;53.70;;;;;;5134335;27;20035;-87
2023/05/20 12:44:32;;;;;;;8.40;1.95;;;23.70;53.40;;;;;;5134190;27;20483;-88